createdAt,value
2023-01-21T00:01:37.693Z,22.40
2023-01-21T00:04:05.921Z,17.67
2023-01-21T00:09:26.237Z,19.07
2023-01-21T00:11:54.774Z,18.50
2023-01-21T00:14:22.927Z,19.90
2023-01-21T00:16:51.245Z,20.00
2023-01-21T00:19:19.049Z,17.53
2023-01-21T00:21:50.083Z,19.37
2023-01-21T00:27:02.991Z,22.20
2023-01-21T00:29:34.259Z,19.77
2023-01-21T00:32:01.918Z,19.43
2023-01-21T00:34:29.515Z,21.07
2023-01-21T00:36:58.536Z,21.00
2023-01-21T00:39:27.169Z,20.10
2023-01-21T00:42:00.434Z,20.30
2023-01-21T00:44:29.627Z,17.30
2023-01-21T00:46:57.299Z,18.60
2023-01-21T00:49:25.998Z,19.13
2023-01-21T00:51:55.641Z,15.63
2023-01-21T00:54:27.426Z,18.87
2023-01-21T00:57:00.429Z,18.00
2023-01-21T01:02:11.752Z,16.43
2023-01-21T01:04:39.984Z,18.70
2023-01-21T01:07:07.738Z,17.50
2023-01-21T01:09:36.691Z,13.87
2023-01-21T01:12:06.888Z,12.20
2023-01-21T01:14:34.453Z,15.63
2023-01-21T01:17:03.410Z,20.73
2023-01-21T01:19:32.398Z,14.20
2023-01-21T01:22:00.038Z,16.43
2023-01-21T01:24:30.022Z,12.70
2023-01-21T01:26:59.952Z,14.30
2023-01-21T01:29:28.655Z,16.00
2023-01-21T01:31:59.188Z,16.20
2023-01-21T01:34:26.776Z,14.20
2023-01-21T01:36:54.341Z,21.23
2023-01-21T01:39:22.271Z,15.40
2023-01-21T01:41:49.868Z,12.97
2023-01-21T01:44:57.200Z,15.13
2023-01-21T01:47:31.292Z,19.13
2023-01-21T01:50:06.477Z,17.10
2023-01-21T01:52:42.317Z,22.23
2023-01-21T01:55:17.700Z,18.30
2023-01-21T01:57:55.613Z,15.63
2023-01-21T02:00:25.044Z,20.20
2023-01-21T02:03:14.588Z,15.07
2023-01-21T02:05:43.482Z,16.73
2023-01-21T02:08:11.990Z,14.20
2023-01-21T02:10:43.281Z,15.43
2023-01-21T02:13:13.121Z,19.30
2023-01-21T02:15:48.430Z,17.10
2023-01-21T02:18:26.513Z,18.13
2023-01-21T02:21:24.117Z,17.80
2023-01-21T02:24:20.394Z,16.97
2023-01-21T02:27:40.408Z,19.27
2023-01-21T02:30:39.097Z,17.37
2023-01-21T02:33:26.704Z,11.13
2023-01-21T02:36:06.792Z,17.53
2023-01-21T02:38:43.755Z,17.23
2023-01-21T02:41:23.517Z,17.50
2023-01-21T02:43:58.239Z,18.43
2023-01-21T02:46:35.681Z,17.97
2023-01-21T02:49:08.649Z,16.80
2023-01-21T02:51:36.599Z,17.97
2023-01-21T02:54:14.682Z,15.20
2023-01-21T02:56:43.582Z,14.37
2023-01-21T02:59:13.082Z,14.00
2023-01-21T03:01:51.892Z,17.37
2023-01-21T03:04:43.750Z,16.30
2023-01-21T03:07:19.617Z,19.10
2023-01-21T03:09:47.687Z,20.53
2023-01-21T03:12:27.611Z,15.33
2023-01-21T03:15:17.008Z,12.60
2023-01-21T03:17:51.708Z,19.23
2023-01-21T03:20:25.259Z,17.17
2023-01-21T03:22:57.728Z,15.13
2023-01-21T03:25:26.793Z,16.57
2023-01-21T03:27:56.051Z,16.07
2023-01-21T03:30:26.485Z,14.77
2023-01-21T03:32:57.307Z,15.63
2023-01-21T03:35:29.653Z,15.30
2023-01-21T03:38:01.381Z,20.63
2023-01-21T03:40:34.559Z,15.93
2023-01-21T03:43:03.243Z,13.20
2023-01-21T03:45:37.711Z,13.20
2023-01-21T03:48:14.541Z,16.10
2023-01-21T03:50:48.621Z,12.97
2023-01-21T03:53:16.416Z,12.83
2023-01-21T03:55:43.979Z,17.10
2023-01-21T03:58:11.665Z,14.83
2023-01-21T04:00:39.416Z,13.90
2023-01-21T04:03:07.007Z,17.93
2023-01-21T04:05:35.943Z,16.00
2023-01-21T04:08:04.844Z,14.83
2023-01-21T04:10:32.465Z,20.30
2023-01-21T04:12:59.993Z,14.10
2023-01-21T04:15:27.636Z,14.60
2023-01-21T04:17:55.232Z,15.63
2023-01-21T04:20:22.849Z,15.13
2023-01-21T04:22:50.439Z,15.73
2023-01-21T04:25:19.390Z,16.33
2023-01-21T04:27:46.953Z,17.33
2023-01-21T04:30:15.065Z,13.50
2023-01-21T04:32:43.429Z,13.87
2023-01-21T04:35:11.194Z,14.00
2023-01-21T04:37:38.745Z,16.53
2023-01-21T04:40:07.469Z,18.30
2023-01-21T04:42:38.735Z,15.03
2023-01-21T04:45:07.960Z,13.97
2023-01-21T04:47:35.545Z,14.40
2023-01-21T04:50:04.726Z,13.87
2023-01-21T04:52:32.351Z,18.47
2023-01-21T04:55:00.118Z,13.47
2023-01-21T04:57:27.765Z,18.40
2023-01-21T04:59:56.774Z,13.07
2023-01-21T05:02:24.656Z,19.50
2023-01-21T05:04:52.332Z,14.77
2023-01-21T05:07:21.678Z,16.30
2023-01-21T05:09:49.469Z,15.80
2023-01-21T05:12:17.099Z,15.83
2023-01-21T05:14:44.931Z,15.20
2023-01-21T05:17:13.873Z,18.93
2023-01-21T05:19:41.432Z,14.10
2023-01-21T05:22:09.061Z,17.73
2023-01-21T05:24:37.628Z,21.43
2023-01-21T05:27:05.473Z,18.27
2023-01-21T05:29:33.003Z,22.10
2023-01-21T05:32:02.255Z,17.37
2023-01-21T05:34:31.246Z,16.33
2023-01-21T05:36:59.213Z,16.97
2023-01-21T05:39:26.851Z,13.87
2023-01-21T05:41:54.599Z,17.47
2023-01-21T05:44:22.429Z,17.53
2023-01-21T05:46:50.066Z,13.17
2023-01-21T05:49:17.976Z,18.67
2023-01-21T05:51:47.208Z,17.90
2023-01-21T05:54:14.954Z,15.60
2023-01-21T05:56:42.822Z,11.77
2023-01-21T05:59:10.625Z,14.40
2023-01-21T06:01:38.309Z,18.70
2023-01-21T06:04:06.184Z,18.57
2023-01-21T06:06:33.842Z,20.20
2023-01-21T06:09:02.718Z,16.47
2023-01-21T06:11:30.436Z,21.20
2023-01-21T06:14:00.199Z,20.13
2023-01-21T06:16:28.312Z,16.30
2023-01-21T06:18:55.972Z,17.30
2023-01-21T06:21:23.642Z,18.17
2023-01-21T06:23:51.314Z,16.87
2023-01-21T06:26:20.329Z,19.33
2023-01-21T06:28:48.130Z,19.07
2023-01-21T06:31:15.807Z,21.10
2023-01-21T06:33:44.104Z,18.33
2023-01-21T06:36:14.279Z,18.57
2023-01-21T06:38:41.952Z,21.13
2023-01-21T06:41:09.610Z,23.90
2023-01-21T06:43:38.771Z,18.10
2023-01-21T06:46:06.888Z,15.80
2023-01-21T06:48:34.966Z,16.10
2023-01-21T06:51:02.939Z,18.77
2023-01-21T06:53:30.836Z,20.37
2023-01-21T06:55:58.570Z,15.80
2023-01-21T06:58:26.362Z,16.90
2023-01-21T07:00:57.973Z,18.87
2023-01-21T07:03:26.562Z,14.40
2023-01-21T07:05:54.202Z,17.50
2023-01-21T07:08:22.030Z,14.50
2023-01-21T07:10:49.885Z,20.77
2023-01-21T07:13:17.557Z,23.13
2023-01-21T07:15:47.482Z,14.33
2023-01-21T07:18:16.461Z,14.43
2023-01-21T07:20:44.084Z,14.93
2023-01-21T07:23:13.891Z,15.00
2023-01-21T07:25:41.501Z,16.80
2023-01-21T07:28:09.805Z,13.47
2023-01-21T07:30:37.540Z,24.73
2023-01-21T07:33:09.375Z,15.00
2023-01-21T07:35:39.712Z,14.87
2023-01-21T07:38:07.951Z,14.40
2023-01-21T07:40:36.378Z,15.97
2023-01-21T07:43:04.090Z,20.10
2023-01-21T07:45:31.720Z,15.63
2023-01-21T07:48:00.168Z,15.17
2023-01-21T07:50:28.457Z,18.17
2023-01-21T07:52:59.476Z,15.10
2023-01-21T07:55:27.470Z,14.33
2023-01-21T07:57:56.796Z,17.80
2023-01-21T08:00:27.267Z,14.10
2023-01-21T08:02:55.819Z,19.27
2023-01-21T08:05:26.720Z,15.97
2023-01-21T08:07:59.407Z,16.90
2023-01-21T08:10:27.339Z,17.07
2023-01-21T08:12:55.006Z,12.90
2023-01-21T08:15:25.195Z,17.03
2023-01-21T08:17:52.848Z,15.40
2023-01-21T08:20:20.744Z,14.20
2023-01-21T08:22:48.326Z,21.33
2023-01-21T08:25:17.759Z,20.93
2023-01-21T08:27:45.587Z,13.87
2023-01-21T08:30:13.730Z,14.97
2023-01-21T08:32:41.729Z,17.33
2023-01-21T08:35:10.282Z,16.47
2023-01-21T08:37:39.536Z,13.30
2023-01-21T08:40:09.193Z,12.07
2023-01-21T08:42:39.404Z,13.40
2023-01-21T08:45:09.159Z,12.63
2023-01-21T08:47:38.856Z,17.57
2023-01-21T08:50:08.042Z,14.23
2023-01-21T08:52:35.824Z,14.47
2023-01-21T08:55:03.394Z,15.53
2023-01-21T08:57:30.900Z,12.10
2023-01-21T08:59:59.998Z,10.70
2023-01-21T09:02:27.850Z,11.17
2023-01-21T09:04:55.609Z,16.80
2023-01-21T09:07:23.202Z,11.97
2023-01-21T09:09:50.751Z,14.00
2023-01-21T09:12:18.396Z,15.83
2023-01-21T09:14:46.218Z,18.80
2023-01-21T09:17:15.486Z,14.93
2023-01-21T09:19:43.179Z,12.60
2023-01-21T09:22:10.947Z,11.50
2023-01-21T09:24:38.478Z,8.87
2023-01-21T09:27:07.806Z,9.07
2023-01-21T09:29:35.512Z,13.93
2023-01-21T09:32:07.479Z,14.17
2023-01-21T09:34:36.678Z,10.50
2023-01-21T09:37:05.019Z,14.90
2023-01-21T09:39:33.751Z,12.77
2023-01-21T09:42:01.514Z,13.60
2023-01-21T09:44:33.283Z,11.20
2023-01-21T09:47:05.794Z,13.57
2023-01-21T09:49:39.129Z,12.50
2023-01-21T09:52:21.045Z,8.93
2023-01-21T09:54:49.017Z,9.03
2023-01-21T09:57:33.618Z,9.40
2023-01-21T10:00:19.666Z,10.17
2023-01-21T10:02:55.656Z,14.37
2023-01-21T10:05:40.059Z,14.30
2023-01-21T10:08:17.868Z,9.40
2023-01-21T10:10:51.166Z,13.63
2023-01-21T10:13:41.969Z,7.90
2023-01-21T10:16:19.133Z,10.43
2023-01-21T10:18:49.712Z,8.67
2023-01-21T10:21:29.504Z,10.30
2023-01-21T10:24:02.603Z,10.87
2023-01-21T10:26:33.424Z,12.50
2023-01-21T10:29:01.610Z,14.83
2023-01-21T10:31:30.836Z,9.93
2023-01-21T10:33:58.573Z,12.20
2023-01-21T10:36:47.695Z,11.83
2023-01-21T10:39:23.851Z,11.30
2023-01-21T10:42:08.144Z,8.70
2023-01-21T10:44:44.873Z,10.47
2023-01-21T10:47:19.527Z,9.57
2023-01-21T10:49:55.437Z,13.67
2023-01-21T10:52:30.146Z,16.50
2023-01-21T10:55:03.927Z,12.80
2023-01-21T10:57:46.824Z,12.83
2023-01-21T11:00:22.176Z,10.07
2023-01-21T11:02:55.647Z,11.80
2023-01-21T11:05:25.460Z,19.33
2023-01-21T11:07:55.075Z,15.43
2023-01-21T11:10:25.559Z,14.17
2023-01-21T11:12:55.926Z,15.10
2023-01-21T11:15:24.991Z,10.90
2023-01-21T11:17:56.400Z,13.20
2023-01-21T11:20:30.347Z,10.07
2023-01-21T11:22:59.368Z,10.03
2023-01-21T11:25:40.953Z,12.07
2023-01-21T11:28:24.093Z,11.37
2023-01-21T11:31:03.177Z,9.50
2023-01-21T11:33:30.995Z,9.10
2023-01-21T11:36:13.810Z,14.00
2023-01-21T11:38:43.664Z,7.70
2023-01-21T11:41:23.208Z,13.83
2023-01-21T11:43:52.876Z,10.20
2023-01-21T11:46:39.061Z,11.40
2023-01-21T11:49:27.528Z,9.00
2023-01-21T11:52:19.503Z,7.90
2023-01-21T11:54:49.066Z,8.10
2023-01-21T11:57:30.025Z,8.40
2023-01-21T12:00:08.050Z,9.23
2023-01-21T12:02:40.939Z,7.93
2023-01-21T12:05:17.201Z,6.67
2023-01-21T12:07:50.217Z,8.60
2023-01-21T12:10:30.502Z,6.90
2023-01-21T12:13:11.649Z,6.90
2023-01-21T12:15:51.210Z,11.27
2023-01-21T12:18:35.559Z,6.07
2023-01-21T12:21:06.326Z,6.00
2023-01-21T12:23:57.802Z,5.80
2023-01-21T12:26:37.761Z,5.00
2023-01-21T12:29:22.329Z,7.90
2023-01-21T12:31:53.380Z,7.13
2023-01-21T12:34:26.783Z,8.10
2023-01-21T12:36:59.504Z,7.77
2023-01-21T12:39:32.057Z,7.40
2023-01-21T12:42:08.757Z,6.37
2023-01-21T12:44:40.479Z,9.63
2023-01-21T12:47:19.977Z,6.67
2023-01-21T12:50:04.848Z,5.43
2023-01-21T12:52:41.083Z,8.80
2023-01-21T12:55:19.102Z,7.50
2023-01-21T12:57:55.426Z,6.47
2023-01-21T13:00:26.127Z,5.73
2023-01-21T13:03:01.263Z,5.10
2023-01-21T13:05:35.304Z,4.90
2023-01-21T13:08:21.863Z,7.17
2023-01-21T13:10:55.461Z,6.87
2023-01-21T13:13:32.189Z,4.53
2023-01-21T13:16:05.014Z,5.83
2023-01-21T13:18:36.906Z,6.67
2023-01-21T13:21:12.963Z,6.23
2023-01-21T13:23:46.973Z,4.43
2023-01-21T13:26:22.679Z,7.20
2023-01-21T13:29:00.431Z,4.47
2023-01-21T13:31:33.984Z,5.80
2023-01-21T13:34:15.548Z,7.70
2023-01-21T13:37:00.617Z,6.50
2023-01-21T13:39:36.063Z,6.77
2023-01-21T13:42:17.446Z,5.27
2023-01-21T13:44:57.756Z,4.57
2023-01-21T13:47:37.604Z,6.27
2023-01-21T13:50:19.793Z,6.93
2023-01-21T13:53:14.296Z,5.87
2023-01-21T13:55:55.457Z,5.97
2023-01-21T13:58:36.013Z,4.80
2023-01-21T14:01:09.898Z,6.53
2023-01-21T14:03:42.428Z,5.30
2023-01-21T14:06:16.076Z,5.70
2023-01-21T14:08:49.375Z,4.70
2023-01-21T14:11:20.630Z,3.30
2023-01-21T14:14:24.284Z,5.10
2023-01-21T14:17:09.741Z,4.87
2023-01-21T14:20:24.861Z,4.37
2023-01-21T14:23:08.476Z,3.93
2023-01-21T14:25:50.952Z,4.03
2023-01-21T14:28:28.454Z,4.93
2023-01-21T14:31:05.193Z,4.83
2023-01-21T14:33:44.497Z,4.40
2023-01-21T14:36:18.684Z,3.33
2023-01-21T14:38:56.766Z,3.43
2023-01-21T14:41:24.507Z,6.23
2023-01-21T14:43:53.490Z,5.13
2023-01-21T14:46:33.632Z,5.40
2023-01-21T14:49:07.822Z,4.07
2023-01-21T14:51:38.808Z,4.80
2023-01-21T14:54:12.447Z,5.30
2023-01-21T14:56:40.329Z,7.47
2023-01-21T14:59:24.773Z,5.47
2023-01-21T15:02:03.803Z,6.07
2023-01-21T15:04:37.279Z,5.50
2023-01-21T15:07:14.217Z,5.73
2023-01-21T15:09:46.492Z,8.47
2023-01-21T15:12:20.092Z,10.00
2023-01-21T15:14:51.484Z,4.73
2023-01-21T15:18:03.241Z,4.03
2023-01-21T15:20:50.779Z,5.70
2023-01-21T15:23:21.675Z,4.20
2023-01-21T15:26:18.097Z,6.60
2023-01-21T15:28:47.101Z,3.40
2023-01-21T15:31:42.967Z,4.87
2023-01-21T15:34:15.987Z,4.10
2023-01-21T15:36:50.421Z,5.07
2023-01-21T15:39:23.927Z,8.67
2023-01-21T15:42:05.389Z,7.60
2023-01-21T15:45:05.557Z,6.37
2023-01-21T15:48:10.571Z,3.43
2023-01-21T15:50:46.572Z,7.77
2023-01-21T15:53:34.188Z,4.90
2023-01-21T15:56:16.596Z,3.80
2023-01-21T15:58:53.366Z,6.93
2023-01-21T16:01:29.633Z,4.50
2023-01-21T16:04:13.076Z,6.13
2023-01-21T16:06:49.469Z,4.47
2023-01-21T16:09:30.374Z,5.40
2023-01-21T16:12:10.298Z,5.53
2023-01-21T16:14:52.472Z,5.13
2023-01-21T16:17:30.372Z,5.33
2023-01-21T16:20:01.680Z,5.00
2023-01-21T16:22:33.649Z,4.33
2023-01-21T16:25:07.745Z,5.60
2023-01-21T16:27:36.136Z,7.00
2023-01-21T16:30:06.861Z,4.00
2023-01-21T16:32:37.216Z,4.80
2023-01-21T16:35:05.942Z,9.20
2023-01-21T16:37:34.026Z,5.13
2023-01-21T16:40:21.773Z,5.30
2023-01-21T16:43:07.095Z,3.20
2023-01-21T16:45:34.985Z,4.17
2023-01-21T16:48:02.735Z,8.20
2023-01-21T16:50:32.573Z,6.67
2023-01-21T16:53:08.076Z,7.30
2023-01-21T16:55:46.113Z,4.30
2023-01-21T16:58:28.480Z,5.40
2023-01-21T17:01:06.647Z,5.20
2023-01-21T17:03:34.626Z,6.47
2023-01-21T17:06:06.872Z,6.37
2023-01-21T17:08:35.000Z,5.87
2023-01-21T17:11:08.209Z,5.83
2023-01-21T17:13:40.709Z,5.00
2023-01-21T17:16:19.568Z,6.43
2023-01-21T17:18:52.155Z,8.57
2023-01-21T17:21:27.959Z,5.93
2023-01-21T17:23:59.597Z,6.50
2023-01-21T17:26:30.958Z,4.77
2023-01-21T17:29:00.490Z,11.30
2023-01-21T17:31:30.195Z,5.57
2023-01-21T17:34:20.265Z,8.30
2023-01-21T17:36:50.211Z,6.90
2023-01-21T17:39:52.547Z,8.63
2023-01-21T17:42:23.740Z,6.03
2023-01-21T17:44:56.673Z,6.43
2023-01-21T17:47:28.363Z,5.83
2023-01-21T17:49:58.655Z,12.43
2023-01-21T17:52:26.683Z,5.50
2023-01-21T17:55:13.321Z,8.43
2023-01-21T17:57:42.232Z,4.10
2023-01-21T18:00:26.256Z,3.90
2023-01-21T18:02:54.019Z,3.93
2023-01-21T18:05:21.819Z,6.93
2023-01-21T18:07:50.235Z,7.13
2023-01-21T18:10:21.164Z,4.43
2023-01-21T18:12:50.404Z,5.10
2023-01-21T18:15:19.704Z,6.90
2023-01-21T18:17:50.663Z,6.47
2023-01-21T18:20:20.499Z,5.87
2023-01-21T18:22:50.127Z,5.77
2023-01-21T18:25:18.699Z,4.33
2023-01-21T18:27:51.708Z,5.87
2023-01-21T18:30:23.155Z,6.53
2023-01-21T18:32:50.996Z,5.30
2023-01-21T18:35:20.194Z,5.40
2023-01-21T18:37:47.923Z,5.37
2023-01-21T18:40:17.831Z,4.77
2023-01-21T18:42:46.723Z,3.83
2023-01-21T18:45:15.745Z,6.10
2023-01-21T18:47:44.969Z,6.50
2023-01-21T18:50:18.827Z,5.83
2023-01-21T18:52:47.500Z,6.20
2023-01-21T18:55:16.220Z,4.70
2023-01-21T18:57:46.387Z,4.00
2023-01-21T19:00:22.638Z,6.23
2023-01-21T19:02:53.662Z,3.30
2023-01-21T19:05:21.961Z,9.03
2023-01-21T19:07:49.637Z,6.53
2023-01-21T19:10:23.914Z,5.40
2023-01-21T19:12:51.483Z,4.67
2023-01-21T19:15:22.294Z,6.27
2023-01-21T19:17:52.715Z,5.07
2023-01-21T19:20:22.582Z,7.70
2023-01-21T19:22:51.527Z,8.40
2023-01-21T19:25:19.625Z,7.50
2023-01-21T19:27:51.360Z,4.80
2023-01-21T19:30:22.762Z,4.63
2023-01-21T19:32:53.354Z,4.73
2023-01-21T19:35:28.035Z,4.93
2023-01-21T19:37:56.107Z,8.70
2023-01-21T19:40:26.044Z,4.90
2023-01-21T19:42:54.050Z,4.50
2023-01-21T19:45:23.163Z,4.30
2023-01-21T19:47:52.461Z,3.90
2023-01-21T19:50:23.132Z,4.33
2023-01-21T19:52:52.645Z,5.27
2023-01-21T19:55:22.179Z,5.17
2023-01-21T19:57:55.605Z,5.30
2023-01-21T20:00:25.166Z,5.27
2023-01-21T20:02:54.411Z,5.47
2023-01-21T20:05:22.251Z,4.50
2023-01-21T20:07:51.801Z,5.20
2023-01-21T20:10:24.357Z,4.23
2023-01-21T20:12:52.734Z,4.07
2023-01-21T20:15:24.650Z,7.50
2023-01-21T20:17:56.066Z,3.03
2023-01-21T20:23:16.385Z,3.80
2023-01-21T20:25:46.042Z,3.93
2023-01-21T20:28:19.206Z,4.13
2023-01-21T20:30:49.101Z,5.40
2023-01-21T20:33:27.030Z,5.70
2023-01-21T20:35:57.207Z,4.10
2023-01-21T20:38:28.291Z,5.60
2023-01-21T20:40:56.076Z,5.60
2023-01-21T20:43:23.962Z,3.33
2023-01-21T20:45:53.003Z,5.07
2023-01-21T20:48:25.828Z,5.10
2023-01-21T20:50:54.120Z,5.23
2023-01-21T20:53:22.122Z,4.70
2023-01-21T20:55:52.237Z,4.53
2023-01-21T20:58:21.915Z,5.20
2023-01-21T21:00:50.030Z,6.10
2023-01-21T21:03:19.441Z,6.10
2023-01-21T21:05:49.904Z,6.70
2023-01-21T21:08:20.258Z,5.87
2023-01-21T21:10:49.899Z,6.17
2023-01-21T21:13:17.450Z,9.27
2023-01-21T21:15:46.738Z,9.83
2023-01-21T21:18:14.976Z,7.03
2023-01-21T21:20:43.113Z,7.80
2023-01-21T21:23:14.640Z,7.53
2023-01-21T21:25:45.490Z,6.13
2023-01-21T21:28:15.171Z,5.40
2023-01-21T21:30:43.319Z,8.00
2023-01-21T21:33:16.295Z,8.60
2023-01-21T21:35:44.661Z,5.97
2023-01-21T21:38:15.851Z,6.37
2023-01-21T21:40:46.176Z,10.43
2023-01-21T21:43:38.725Z,5.90
2023-01-21T21:46:25.490Z,8.40
2023-01-21T21:48:53.292Z,8.50
2023-01-21T21:51:22.437Z,11.10
2023-01-21T21:53:51.593Z,6.33
2023-01-21T21:56:21.537Z,9.77
2023-01-21T21:58:50.188Z,12.17
2023-01-21T22:01:20.543Z,6.97
2023-01-21T22:03:48.744Z,11.03
2023-01-21T22:06:18.432Z,11.87
2023-01-21T22:08:46.040Z,11.07
2023-01-21T22:11:17.018Z,8.27
2023-01-21T22:13:47.913Z,9.80
2023-01-21T22:16:18.740Z,8.90
2023-01-21T22:18:46.618Z,8.00
2023-01-21T22:21:16.466Z,8.90
2023-01-21T22:23:44.411Z,8.70
2023-01-21T22:26:14.255Z,8.87
2023-01-21T22:28:44.878Z,11.60
2023-01-21T22:31:14.572Z,9.10
2023-01-21T22:33:42.395Z,9.17
2023-01-21T22:36:11.994Z,9.07
2023-01-21T22:38:40.849Z,10.30
2023-01-21T22:41:10.183Z,8.77
2023-01-21T22:43:41.674Z,9.00
2023-01-21T22:46:13.289Z,6.20
2023-01-21T22:48:41.441Z,8.87
2023-01-21T22:51:11.947Z,11.00
2023-01-21T22:53:40.724Z,7.17
2023-01-21T22:56:08.869Z,9.17
2023-01-21T22:58:37.641Z,6.07
2023-01-21T23:01:06.166Z,8.03
2023-01-21T23:03:35.420Z,8.57
2023-01-21T23:06:06.393Z,8.80
2023-01-21T23:08:34.135Z,7.20
2023-01-21T23:11:02.432Z,8.20
2023-01-21T23:13:30.468Z,7.27
2023-01-21T23:15:58.348Z,7.00
2023-01-21T23:18:27.570Z,5.70
2023-01-21T23:21:01.809Z,6.43
2023-01-21T23:23:35.622Z,7.37
2023-01-21T23:26:03.950Z,4.83
2023-01-21T23:28:31.640Z,5.57
2023-01-21T23:30:59.399Z,7.53
2023-01-21T23:33:27.109Z,7.00
2023-01-21T23:35:56.678Z,6.90
2023-01-21T23:38:27.351Z,7.07
2023-01-21T23:40:58.263Z,5.37
2023-01-21T23:43:26.938Z,5.90
2023-01-21T23:45:56.272Z,7.03
2023-01-21T23:48:26.429Z,5.30
2023-01-21T23:50:54.014Z,8.10
2023-01-21T23:53:23.202Z,6.73
2023-01-21T23:55:51.091Z,6.00
2023-01-21T23:58:18.641Z,7.40
